createdAt,value
2019-03-20T00:00:23.243Z,3.40
2019-03-20T00:02:51.757Z,3.30
2019-03-20T00:05:20.203Z,3.40
2019-03-20T00:07:48.716Z,3.30
2019-03-20T00:10:17.954Z,3.30
2019-03-20T00:12:46.462Z,3.20
2019-03-20T00:15:17.658Z,3.20
2019-03-20T00:17:46.086Z,3.20
2019-03-20T00:20:14.979Z,3.20
2019-03-20T00:22:43.553Z,3.20
2019-03-20T00:25:12.896Z,3.20
2019-03-20T00:27:41.575Z,3.10
2019-03-20T00:30:15.292Z,3.10
2019-03-20T00:32:43.764Z,3.10
2019-03-20T00:35:12.344Z,3.20
2019-03-20T00:37:40.844Z,3.20
2019-03-20T00:40:14.331Z,3.20
2019-03-20T00:42:42.813Z,3.10
2019-03-20T00:45:14.075Z,3.10
2019-03-20T00:47:42.514Z,3.10
2019-03-20T00:50:13.886Z,3.10
2019-03-20T00:52:42.542Z,3.10
2019-03-20T00:55:13.331Z,3.00
2019-03-20T00:57:41.902Z,3.00
2019-03-20T01:00:15.930Z,3.00
2019-03-20T01:02:44.366Z,3.00
2019-03-20T01:05:13.200Z,3.00
2019-03-20T01:07:41.670Z,3.00
2019-03-20T01:10:12.982Z,2.90
2019-03-20T01:12:41.436Z,2.90
2019-03-20T01:15:10.166Z,2.90
2019-03-20T01:17:38.598Z,2.90
2019-03-20T01:20:12.901Z,2.80
2019-03-20T01:22:41.389Z,2.80
2019-03-20T01:25:10.790Z,2.70
2019-03-20T01:27:39.334Z,2.70
2019-03-20T01:30:12.407Z,2.90
2019-03-20T01:32:40.837Z,2.90
2019-03-20T01:35:09.317Z,2.90
2019-03-20T01:37:37.801Z,2.80
2019-03-20T01:40:07.795Z,2.80
2019-03-20T01:42:36.223Z,2.70
2019-03-20T01:45:05.892Z,2.60
2019-03-20T01:47:34.331Z,2.60
2019-03-20T01:50:03.060Z,2.50
2019-03-20T01:52:31.479Z,2.50
2019-03-20T01:54:59.955Z,2.50
2019-03-20T01:57:28.397Z,2.50
2019-03-20T01:59:56.867Z,2.40
2019-03-20T02:02:25.381Z,2.50
2019-03-20T02:04:53.887Z,2.50
2019-03-20T02:07:22.330Z,2.50
2019-03-20T02:09:50.783Z,2.50
2019-03-20T02:12:19.219Z,2.60
2019-03-20T02:14:47.675Z,2.50
2019-03-20T02:17:16.114Z,2.50
2019-03-20T02:19:44.579Z,2.50
2019-03-20T02:22:13.015Z,2.50
2019-03-20T02:24:41.465Z,2.50
2019-03-20T02:27:09.914Z,2.50
2019-03-20T02:29:38.346Z,2.50
2019-03-20T02:32:06.826Z,2.50
2019-03-20T02:34:35.327Z,2.50
2019-03-20T02:37:03.850Z,2.40
2019-03-20T02:39:32.279Z,2.40
2019-03-20T02:42:00.748Z,2.50
2019-03-20T02:44:29.190Z,2.40
2019-03-20T02:46:57.710Z,2.40
2019-03-20T02:49:26.192Z,2.40
2019-03-20T02:51:54.678Z,2.40
2019-03-20T02:54:23.175Z,2.40
2019-03-20T02:56:51.652Z,2.50
2019-03-20T02:59:20.183Z,2.40
2019-03-20T03:01:48.699Z,2.50
2019-03-20T03:04:17.154Z,2.50
2019-03-20T03:06:45.605Z,2.50
2019-03-20T03:09:14.045Z,2.50
2019-03-20T03:11:42.517Z,2.50
2019-03-20T03:14:11.010Z,2.50
2019-03-20T03:16:39.462Z,2.50
2019-03-20T03:19:07.908Z,2.50
2019-03-20T03:21:36.429Z,2.40
2019-03-20T03:24:04.883Z,2.50
2019-03-20T03:26:33.409Z,2.50
2019-03-20T03:29:01.904Z,2.50
2019-03-20T03:31:30.376Z,2.40
2019-03-20T03:33:58.881Z,2.40
2019-03-20T03:36:27.398Z,2.40
2019-03-20T03:38:55.839Z,2.40
2019-03-20T03:41:24.279Z,2.40
2019-03-20T03:43:52.739Z,2.50
2019-03-20T03:46:21.196Z,2.50
2019-03-20T03:48:49.635Z,2.40
2019-03-20T03:51:18.113Z,2.30
2019-03-20T03:53:46.617Z,2.30
2019-03-20T03:56:15.075Z,2.30
2019-03-20T03:58:43.522Z,2.20
2019-03-20T04:01:11.993Z,2.20
2019-03-20T04:03:40.423Z,2.20
2019-03-20T04:06:08.939Z,2.30
2019-03-20T04:08:37.383Z,2.20
2019-03-20T04:11:05.849Z,2.20
2019-03-20T04:13:34.339Z,2.20
2019-03-20T04:16:02.786Z,2.10
2019-03-20T04:18:31.232Z,2.30
2019-03-20T04:20:59.676Z,2.30
2019-03-20T04:23:28.116Z,2.30
2019-03-20T04:25:56.546Z,2.40
2019-03-20T04:28:25.003Z,2.50
2019-03-20T04:30:53.528Z,2.50
2019-03-20T04:33:22.056Z,2.60
2019-03-20T04:35:50.550Z,2.60
2019-03-20T04:38:19.023Z,2.40
2019-03-20T04:40:47.541Z,2.20
2019-03-20T04:43:15.998Z,2.10
2019-03-20T04:45:44.433Z,2.00
2019-03-20T04:48:12.894Z,1.90
2019-03-20T04:50:41.343Z,1.90
2019-03-20T04:53:09.821Z,1.80
2019-03-20T04:55:38.297Z,1.80
2019-03-20T04:58:06.792Z,1.80
2019-03-20T05:00:35.299Z,1.80
2019-03-20T05:03:03.765Z,1.70
2019-03-20T05:05:32.262Z,1.70
2019-03-20T05:08:00.719Z,1.70
2019-03-20T05:10:29.160Z,1.70
2019-03-20T05:12:57.608Z,1.80
2019-03-20T05:15:26.050Z,1.80
2019-03-20T05:17:54.536Z,1.80
2019-03-20T05:20:23.145Z,1.90
2019-03-20T05:22:51.604Z,1.90
2019-03-20T05:25:20.038Z,1.90
2019-03-20T05:27:48.484Z,1.40
2019-03-20T05:30:16.989Z,2.00
2019-03-20T05:32:45.453Z,2.00
2019-03-20T05:35:13.966Z,2.00
2019-03-20T05:37:42.632Z,2.00
2019-03-20T05:40:17.587Z,2.00
2019-03-20T05:42:46.170Z,2.10
2019-03-20T05:45:19.279Z,2.10
2019-03-20T05:47:47.783Z,2.20
2019-03-20T05:50:16.950Z,2.30
2019-03-20T05:52:45.483Z,2.30
2019-03-20T05:55:13.990Z,2.30
2019-03-20T05:57:42.584Z,2.40
2019-03-20T06:00:21.964Z,2.50
2019-03-20T06:02:50.444Z,2.60
2019-03-20T06:05:18.861Z,3.20
2019-03-20T06:07:47.968Z,4.00
2019-03-20T06:10:17.396Z,4.90
2019-03-20T06:12:45.838Z,5.60
2019-03-20T06:15:14.652Z,6.20
2019-03-20T06:17:43.433Z,6.50
2019-03-20T06:20:13.958Z,6.40
2019-03-20T06:22:42.392Z,6.20
2019-03-20T06:25:13.158Z,6.70
2019-03-20T06:27:41.658Z,7.30
2019-03-20T06:30:16.008Z,7.80
2019-03-20T06:32:44.447Z,8.30
2019-03-20T06:35:13.356Z,8.50
2019-03-20T06:37:41.794Z,8.90
2019-03-20T06:40:12.844Z,8.60
2019-03-20T06:42:41.291Z,7.80
2019-03-20T06:45:12.823Z,7.80
2019-03-20T06:47:41.280Z,7.60
2019-03-20T06:50:16.732Z,8.30
2019-03-20T06:52:45.169Z,8.60
2019-03-20T06:55:13.762Z,8.90
2019-03-20T06:57:42.214Z,9.10
2019-03-20T07:00:40.517Z,9.00
2019-03-20T07:03:12.030Z,8.90
2019-03-20T07:06:15.258Z,8.50
2019-03-20T07:08:52.672Z,8.30
2019-03-20T07:11:20.034Z,8.10
2019-03-20T07:13:50.561Z,8.30
2019-03-20T07:16:18.647Z,7.80
2019-03-20T07:18:47.107Z,7.50
2019-03-20T07:21:15.548Z,7.40
2019-03-20T07:23:43.994Z,7.30
2019-03-20T07:26:12.445Z,7.20
2019-03-20T07:28:40.880Z,6.60
2019-03-20T07:31:15.303Z,6.40
2019-03-20T07:33:39.493Z,6.20
2019-03-20T07:36:07.949Z,6.20
2019-03-20T07:38:36.391Z,6.40
2019-03-20T07:41:05.093Z,6.30
2019-03-20T07:43:33.544Z,6.30
2019-03-20T07:46:01.998Z,6.40
2019-03-20T07:48:30.442Z,6.40
2019-03-20T07:50:58.899Z,6.50
2019-03-20T07:53:27.346Z,6.60
2019-03-20T07:55:55.795Z,6.80
2019-03-20T07:58:24.238Z,7.00
2019-03-20T08:00:52.687Z,7.20
2019-03-20T08:03:21.134Z,7.40
2019-03-20T08:05:49.617Z,7.30
2019-03-20T08:08:18.055Z,7.30
2019-03-20T08:10:46.520Z,7.30
2019-03-20T08:13:14.960Z,7.40
2019-03-20T08:15:43.408Z,7.40
2019-03-20T08:18:11.842Z,7.60
2019-03-20T08:20:40.298Z,7.60
2019-03-20T08:23:08.742Z,7.70
2019-03-20T08:25:37.374Z,7.70
2019-03-20T08:28:05.819Z,7.70
2019-03-20T08:30:34.281Z,7.70
2019-03-20T08:33:02.800Z,7.80
2019-03-20T08:35:31.311Z,7.90
2019-03-20T08:37:59.758Z,8.00
2019-03-20T08:40:28.198Z,8.10
2019-03-20T08:42:56.652Z,8.20
2019-03-20T08:45:25.106Z,8.30
2019-03-20T08:47:53.538Z,8.40
2019-03-20T08:50:23.122Z,8.50
2019-03-20T08:52:51.574Z,8.60
2019-03-20T08:55:20.930Z,8.70
2019-03-20T08:57:49.608Z,8.80
2019-03-20T09:00:19.846Z,8.80
2019-03-20T09:02:48.347Z,8.90
2019-03-20T09:05:17.079Z,8.90
2019-03-20T09:07:47.402Z,8.90
2019-03-20T09:10:21.639Z,9.10
2019-03-20T09:12:50.080Z,9.20
2019-03-20T09:15:19.200Z,9.30
2019-03-20T09:17:47.763Z,9.40
2019-03-20T09:20:24.102Z,9.40
2019-03-20T09:22:52.627Z,9.50
2019-03-20T09:25:26.045Z,9.60
2019-03-20T09:27:54.572Z,9.70
2019-03-20T09:30:23.827Z,9.60
2019-03-20T09:32:52.616Z,9.80
2019-03-20T09:35:21.317Z,9.70
2019-03-20T09:37:52.090Z,9.70
2019-03-20T09:40:26.881Z,9.70
2019-03-20T09:42:55.339Z,9.80
2019-03-20T09:45:24.307Z,9.90
2019-03-20T09:47:52.760Z,10.00
2019-03-20T09:50:24.949Z,10.20
2019-03-20T09:52:53.414Z,10.30
2019-03-20T09:55:21.873Z,10.40
2019-03-20T09:57:50.406Z,10.50
2019-03-20T10:00:23.685Z,10.50
2019-03-20T10:02:52.334Z,10.60
2019-03-20T10:05:20.772Z,10.60
2019-03-20T10:07:49.297Z,10.70
2019-03-20T10:10:22.553Z,10.70
2019-03-20T10:12:51.264Z,10.80
2019-03-20T10:15:25.038Z,10.90
2019-03-20T10:17:53.499Z,10.80
2019-03-20T10:20:22.687Z,10.80
2019-03-20T10:22:51.172Z,10.50
2019-03-20T10:25:19.686Z,10.40
2019-03-20T10:27:48.207Z,10.60
2019-03-20T10:30:24.624Z,10.80
2019-03-20T10:32:53.163Z,10.70
2019-03-20T10:35:21.618Z,10.80
2019-03-20T10:37:50.072Z,10.80
2019-03-20T10:40:26.315Z,10.70
2019-03-20T10:42:54.851Z,10.80
2019-03-20T10:45:23.433Z,11.00
2019-03-20T10:47:53.295Z,11.20
2019-03-20T10:50:25.860Z,11.40
2019-03-20T10:52:54.310Z,11.40
2019-03-20T10:55:22.755Z,11.40
2019-03-20T10:57:51.214Z,11.40
2019-03-20T11:00:21.831Z,11.50
2019-03-20T11:02:50.367Z,11.60
2019-03-20T11:05:19.147Z,11.50
2019-03-20T11:07:47.733Z,11.60
2019-03-20T11:10:29.506Z,11.60
2019-03-20T11:12:58.155Z,11.50
2019-03-20T11:15:28.572Z,11.60
2019-03-20T11:17:56.967Z,11.40
2019-03-20T11:20:25.776Z,11.50
2019-03-20T11:22:54.246Z,11.70
2019-03-20T11:25:24.687Z,11.90
2019-03-20T11:27:53.142Z,11.90
2019-03-20T11:30:23.025Z,11.80
2019-03-20T11:32:51.488Z,12.00
2019-03-20T11:35:19.927Z,12.10
2019-03-20T11:37:48.403Z,11.90
2019-03-20T11:40:30.414Z,11.90
2019-03-20T11:42:58.877Z,11.80
2019-03-20T11:45:27.314Z,12.10
2019-03-20T11:47:55.791Z,12.40
2019-03-20T11:50:32.695Z,12.60
2019-03-20T11:53:01.165Z,12.70
2019-03-20T11:55:29.620Z,12.70
2019-03-20T11:57:58.100Z,12.70
2019-03-20T12:00:26.805Z,12.80
2019-03-20T12:02:55.265Z,12.70
2019-03-20T12:05:23.708Z,12.40
2019-03-20T12:07:52.165Z,12.10
2019-03-20T12:10:30.601Z,12.20
2019-03-20T12:12:59.098Z,12.10
2019-03-20T12:15:27.536Z,11.90
2019-03-20T12:17:56.076Z,12.00
2019-03-20T12:20:25.129Z,12.20
2019-03-20T12:22:53.695Z,12.30
2019-03-20T12:25:30.314Z,12.50
2019-03-20T12:27:58.916Z,12.50
2019-03-20T12:30:30.430Z,12.50
2019-03-20T12:32:58.978Z,12.50
2019-03-20T12:35:29.925Z,12.50
2019-03-20T12:37:58.397Z,12.50
2019-03-20T12:40:29.234Z,12.50
2019-03-20T12:42:58.330Z,12.40
2019-03-20T12:45:35.580Z,12.40
2019-03-20T12:48:04.998Z,12.50
2019-03-20T12:50:33.443Z,12.50
2019-03-20T12:53:02.195Z,12.50
2019-03-20T12:55:31.241Z,12.50
2019-03-20T12:57:59.846Z,12.50
2019-03-20T13:00:28.600Z,12.70
2019-03-20T13:02:57.098Z,12.80
2019-03-20T13:05:25.616Z,12.60
2019-03-20T13:07:54.062Z,12.80
2019-03-20T13:10:28.448Z,12.90
2019-03-20T13:12:56.894Z,12.80
2019-03-20T13:15:26.291Z,12.70
2019-03-20T13:17:55.597Z,12.90
2019-03-20T13:20:24.343Z,13.00
2019-03-20T13:22:58.562Z,12.90
2019-03-20T13:25:27.037Z,12.90
2019-03-20T13:27:55.474Z,12.80
2019-03-20T13:30:50.745Z,12.70
2019-03-20T13:33:25.731Z,12.90
2019-03-20T13:35:49.411Z,13.00
2019-03-20T13:38:17.870Z,13.00
2019-03-20T13:40:46.505Z,13.00
2019-03-20T13:43:14.946Z,13.00
2019-03-20T13:45:43.422Z,12.90
2019-03-20T13:48:11.878Z,12.70
2019-03-20T13:50:40.373Z,12.70
2019-03-20T13:53:08.815Z,12.60
2019-03-20T13:55:37.297Z,12.70
2019-03-20T13:58:05.735Z,12.80
2019-03-20T14:00:34.211Z,12.80
2019-03-20T14:03:02.674Z,12.60
2019-03-20T14:05:31.141Z,12.60
2019-03-20T14:07:59.581Z,12.50
2019-03-20T14:10:29.086Z,12.40
2019-03-20T14:12:57.570Z,12.30
2019-03-20T14:15:26.093Z,12.30
2019-03-20T14:17:54.599Z,12.30
2019-03-20T14:20:29.555Z,12.30
2019-03-20T14:22:58.175Z,12.30
2019-03-20T14:25:26.648Z,12.30
2019-03-20T14:27:55.179Z,12.30
2019-03-20T14:30:30.572Z,12.30
2019-03-20T14:32:59.082Z,12.40
2019-03-20T14:35:27.545Z,12.60
2019-03-20T14:37:56.013Z,12.70
2019-03-20T14:40:37.653Z,12.60
2019-03-20T14:43:00.890Z,12.50
2019-03-20T14:45:29.482Z,12.50
2019-03-20T14:47:57.934Z,12.60
2019-03-20T14:50:27.464Z,12.70
2019-03-20T14:52:55.968Z,12.60
2019-03-20T14:55:24.434Z,12.50
2019-03-20T14:57:53.116Z,12.70
2019-03-20T15:00:28.618Z,12.70
2019-03-20T15:02:57.200Z,12.70
2019-03-20T15:05:25.653Z,12.60
2019-03-20T15:07:54.166Z,12.80
2019-03-20T15:10:26.123Z,12.80
2019-03-20T15:12:54.911Z,12.90
2019-03-20T15:15:42.784Z,12.80
2019-03-20T15:18:11.267Z,12.90
2019-03-20T15:20:39.792Z,12.80
2019-03-20T15:23:08.321Z,12.70
2019-03-20T15:25:36.842Z,12.80
2019-03-20T15:28:05.355Z,12.70
2019-03-20T15:30:33.845Z,12.70
2019-03-20T15:33:02.308Z,12.70
2019-03-20T15:35:30.835Z,12.60
2019-03-20T15:37:59.350Z,12.50
2019-03-20T15:40:29.138Z,12.50
2019-03-20T15:42:57.589Z,12.50
2019-03-20T15:45:26.105Z,12.50
2019-03-20T15:47:54.565Z,12.50
2019-03-20T15:50:27.212Z,12.50
2019-03-20T15:52:55.638Z,12.50
2019-03-20T15:55:33.978Z,12.50
2019-03-20T15:58:02.417Z,12.50
2019-03-20T16:00:30.911Z,12.40
2019-03-20T16:03:20.535Z,12.40
2019-03-20T16:05:48.996Z,12.40
2019-03-20T16:08:17.450Z,12.40
2019-03-20T16:10:45.979Z,12.50
2019-03-20T16:13:14.428Z,12.40
2019-03-20T16:15:42.890Z,12.40
2019-03-20T16:18:11.354Z,12.40
2019-03-20T16:20:39.818Z,12.30
2019-03-20T16:23:08.290Z,12.30
2019-03-20T16:25:36.742Z,12.30
2019-03-20T16:28:05.262Z,12.40
2019-03-20T16:30:33.784Z,12.30
2019-03-20T16:33:02.248Z,12.20
2019-03-20T16:35:30.678Z,12.20
2019-03-20T16:37:59.152Z,12.20
2019-03-20T16:40:31.871Z,12.70
2019-03-20T16:43:00.420Z,12.20
2019-03-20T16:45:35.696Z,12.20
2019-03-20T16:48:04.892Z,12.20
2019-03-20T16:50:33.340Z,12.20
2019-03-20T16:53:01.809Z,12.10
2019-03-20T16:55:30.264Z,12.10
2019-03-20T16:57:58.725Z,12.00
2019-03-20T17:00:31.304Z,12.00
2019-03-20T17:02:59.940Z,12.00
2019-03-20T17:05:30.547Z,12.00
2019-03-20T17:07:58.998Z,12.00
2019-03-20T17:10:43.651Z,12.00
2019-03-20T17:13:12.180Z,12.00
2019-03-20T17:15:42.631Z,12.00
2019-03-20T17:18:11.101Z,11.90
2019-03-20T17:20:39.645Z,11.90
2019-03-20T17:23:08.194Z,11.90
2019-03-20T17:25:36.825Z,11.90
2019-03-20T17:28:06.226Z,11.90
2019-03-20T17:30:39.051Z,11.80
2019-03-20T17:33:08.040Z,11.90
2019-03-20T17:35:37.549Z,11.80
2019-03-20T17:38:06.474Z,11.80
2019-03-20T17:40:34.930Z,11.80
2019-03-20T17:43:03.862Z,11.80
2019-03-20T17:45:32.877Z,11.80
2019-03-20T17:48:01.415Z,11.80
2019-03-20T17:50:31.307Z,11.80
2019-03-20T17:52:59.837Z,11.80
2019-03-20T17:55:28.354Z,11.80
2019-03-20T17:57:56.824Z,11.80
2019-03-20T18:00:30.970Z,11.80
2019-03-20T18:02:59.448Z,11.80
2019-03-20T18:05:27.887Z,11.80
2019-03-20T18:07:56.343Z,11.70
2019-03-20T18:10:24.792Z,11.80
2019-03-20T18:12:53.677Z,11.70
2019-03-20T18:15:22.181Z,11.70
2019-03-20T18:17:50.639Z,11.70
2019-03-20T18:20:20.328Z,11.70
2019-03-20T18:22:48.869Z,11.70
2019-03-20T18:25:17.379Z,11.70
2019-03-20T18:27:45.919Z,11.70
2019-03-20T18:30:19.558Z,11.60
2019-03-20T18:32:48.135Z,11.60
2019-03-20T18:35:16.737Z,11.60
2019-03-20T18:37:45.200Z,11.60
2019-03-20T18:40:16.183Z,11.50
2019-03-20T18:42:44.815Z,11.50
2019-03-20T18:45:15.322Z,11.50
2019-03-20T18:47:43.831Z,11.50
2019-03-20T18:50:14.440Z,11.40
2019-03-20T18:52:42.977Z,11.30
2019-03-20T18:55:13.259Z,11.30
2019-03-20T18:57:41.743Z,11.20
2019-03-20T19:00:28.329Z,11.20
2019-03-20T19:03:02.426Z,11.10
2019-03-20T19:05:33.996Z,11.10
2019-03-20T19:08:02.545Z,11.10
2019-03-20T19:10:31.074Z,11.00
2019-03-20T19:12:59.663Z,11.00
2019-03-20T19:15:28.120Z,11.00
2019-03-20T19:17:56.579Z,11.00
2019-03-20T19:20:25.039Z,11.00
2019-03-20T19:22:53.594Z,11.10
2019-03-20T19:25:22.100Z,11.00
2019-03-20T19:27:50.562Z,11.10
2019-03-20T19:30:23.471Z,11.10
2019-03-20T19:32:51.988Z,11.10
2019-03-20T19:35:20.650Z,11.10
2019-03-20T19:37:49.100Z,11.10
2019-03-20T19:40:19.549Z,11.10
2019-03-20T19:42:47.997Z,11.20
2019-03-20T19:45:17.204Z,11.10
2019-03-20T19:47:45.787Z,11.10
2019-03-20T19:50:15.294Z,11.10
2019-03-20T19:52:43.730Z,11.10
2019-03-20T19:55:16.433Z,11.10
2019-03-20T19:57:44.934Z,11.10
2019-03-20T20:00:22.190Z,11.10
2019-03-20T20:02:50.711Z,11.10
2019-03-20T20:05:19.358Z,11.10
2019-03-20T20:07:48.096Z,11.10
2019-03-20T20:10:18.741Z,11.10
2019-03-20T20:12:47.518Z,11.10
2019-03-20T20:15:28.745Z,11.10
2019-03-20T20:17:57.383Z,11.10
2019-03-20T20:20:33.850Z,11.10
2019-03-20T20:23:04.363Z,11.10
2019-03-20T20:25:32.503Z,11.10
2019-03-20T20:28:01.014Z,11.10
2019-03-20T20:30:29.470Z,11.10
2019-03-20T20:32:57.922Z,11.00
2019-03-20T20:35:26.418Z,11.00
2019-03-20T20:37:56.896Z,11.00
2019-03-20T20:40:27.763Z,11.00
2019-03-20T20:42:56.195Z,11.00
2019-03-20T20:45:24.675Z,11.00
2019-03-20T20:47:53.109Z,11.00
2019-03-20T20:50:21.651Z,11.00
2019-03-20T20:52:50.094Z,11.00
2019-03-20T20:55:20.662Z,11.00
2019-03-20T20:57:49.133Z,11.00
2019-03-20T21:00:19.110Z,11.00
2019-03-20T21:02:47.589Z,11.00
2019-03-20T21:05:16.113Z,10.90
2019-03-20T21:07:44.553Z,10.90
2019-03-20T21:10:23.107Z,10.90
2019-03-20T21:12:56.624Z,10.90
2019-03-20T21:15:36.550Z,10.80
2019-03-20T21:18:14.026Z,10.80
2019-03-20T21:20:42.653Z,10.80
2019-03-20T21:23:40.964Z,10.80
2019-03-20T21:26:21.166Z,10.80
2019-03-20T21:29:11.799Z,10.90
2019-03-20T21:31:43.378Z,10.90
2019-03-20T21:34:23.937Z,10.80
2019-03-20T21:37:23.795Z,10.90
2019-03-20T21:39:52.281Z,10.80
2019-03-20T21:42:32.442Z,10.80
2019-03-20T21:45:15.842Z,10.80
2019-03-20T21:47:44.309Z,10.80
2019-03-20T21:50:50.423Z,10.70
2019-03-20T21:53:48.291Z,10.70
2019-03-20T21:56:22.438Z,10.70
2019-03-20T21:59:08.956Z,10.70
2019-03-20T22:01:43.096Z,10.60
2019-03-20T22:04:11.549Z,10.60
2019-03-20T22:07:10.849Z,10.60
2019-03-20T22:09:54.398Z,10.60
2019-03-20T22:12:34.828Z,10.50
2019-03-20T22:15:21.329Z,10.50
2019-03-20T22:18:01.616Z,10.50
2019-03-20T22:20:33.126Z,10.50
2019-03-20T22:23:22.731Z,10.50
2019-03-20T22:26:11.861Z,10.60
2019-03-20T22:29:07.025Z,10.60
2019-03-20T22:31:47.423Z,10.60
2019-03-20T22:34:30.821Z,10.50
2019-03-20T22:36:59.318Z,10.40
2019-03-20T22:40:04.874Z,10.30
2019-03-20T22:42:58.149Z,10.20
2019-03-20T22:46:02.848Z,10.20
2019-03-20T22:48:50.711Z,10.00
2019-03-20T22:51:38.450Z,10.00
2019-03-20T22:54:15.825Z,10.00
2019-03-20T22:57:01.689Z,10.00
2019-03-20T22:59:30.168Z,9.90
2019-03-20T23:02:04.425Z,9.90
2019-03-20T23:04:35.996Z,9.90
2019-03-20T23:07:04.445Z,9.90
2019-03-20T23:09:32.895Z,9.90
2019-03-20T23:12:02.932Z,10.00
2019-03-20T23:14:31.418Z,9.90
2019-03-20T23:16:59.854Z,9.80
2019-03-20T23:19:28.316Z,9.80
2019-03-20T23:21:56.750Z,9.80
2019-03-20T23:24:25.286Z,9.80
2019-03-20T23:26:54.459Z,9.80
2019-03-20T23:29:22.918Z,9.80
2019-03-20T23:31:51.422Z,9.80
2019-03-20T23:34:19.897Z,9.80
2019-03-20T23:36:48.335Z,10.10
2019-03-20T23:39:16.795Z,9.80
2019-03-20T23:41:45.236Z,9.80
2019-03-20T23:44:13.703Z,9.70
2019-03-20T23:46:42.156Z,9.80
2019-03-20T23:49:13.690Z,9.70
2019-03-20T23:51:42.146Z,9.70
2019-03-20T23:54:11.653Z,9.70
2019-03-20T23:56:43.007Z,9.60
2019-03-20T23:59:11.464Z,9.60
